CheckWX is a tool to help pilots better visualize weather data.  It is not intended as a substitute for an official pre-flight weather briefing.

15:25:45 UTC

CYCY METAR
Clyde River Airport
Clyde River, Canada
Current

26 mins ago

CYCY 201500Z AUTO 13012KT 9SM FEW008 OVC090 M03/M04 A3025 RMK SLP247
Observed
May-20 @ 15:00 UTC
Wind
  • 130° at 12 KTS
Visibility
9 SM
Flight Rules
VFR
Cloud Levels
  • Few at 800' AGL
  • Overcast at 9,000' AGL
Temperature
-3°C / 27°F
Dewpoint
-4°C / 25°F
Humidity
93%
Altimeter
30.25" Hg
Pressure
1024.42 hPa
Previous

1 hour ago

CYCY 201400Z AUTO 12012KT 9SM FEW007 OVC090 M04/M04 A3025 RMK SLP247
Observed
May-20 @ 14:00 UTC
Wind
  • 120° at 12 KTS
Visibility
9 SM
Flight Rules
VFR
Cloud Levels
  • Few at 700' AGL
  • Overcast at 9,000' AGL
Temperature
-4°C / 25°F
Dewpoint
-4°C / 25°F
Humidity
100%
Altimeter
30.25" Hg
Pressure
1024.42 hPa
Previous

2 hours ago

CYCY 201349Z AUTO 13011KT 9SM SCT005 OVC090 M04/M04 A3025 RMK SLP247
Observed
May-20 @ 13:49 UTC
Wind
  • 130° at 11 KTS
Visibility
9 SM
Flight Rules
VFR
Cloud Levels
  • Scattered at 500' AGL
  • Overcast at 9,000' AGL
Temperature
-4°C / 25°F
Dewpoint
-4°C / 25°F
Humidity
100%
Altimeter
30.25" Hg
Pressure
1024.42 hPa